createdAt,value
2024-02-26T00:00:09.496Z,93751.00
2024-02-26T00:01:09.521Z,93760.00
2024-02-26T00:02:09.620Z,93761.00
2024-02-26T00:03:09.723Z,93763.00
2024-02-26T00:04:09.798Z,93761.00
2024-02-26T00:05:09.834Z,93744.00
2024-02-26T00:06:09.899Z,93745.00
2024-02-26T00:07:09.931Z,93761.00
2024-02-26T00:08:09.868Z,93766.00
2024-02-26T00:09:09.912Z,93760.00
2024-02-26T00:10:09.921Z,93768.00
2024-02-26T00:11:10.007Z,93757.00
2024-02-26T00:12:10.135Z,93767.00
2024-02-26T00:13:10.066Z,93758.00
2024-02-26T00:14:10.139Z,93753.00
2024-02-26T00:15:10.245Z,93756.00
2024-02-26T00:16:10.227Z,93751.00
2024-02-26T00:17:10.277Z,93752.00
2024-02-26T00:18:10.498Z,93765.00
2024-02-26T00:19:10.591Z,93775.00
2024-02-26T00:20:10.454Z,93779.00
2024-02-26T00:21:10.474Z,93765.00
2024-02-26T00:22:10.507Z,93756.00
2024-02-26T00:23:10.480Z,93747.00
2024-02-26T00:24:10.579Z,93746.00
2024-02-26T00:25:10.614Z,93756.00
2024-02-26T00:26:10.644Z,93762.00
2024-02-26T00:27:10.821Z,93756.00
2024-02-26T00:28:10.827Z,93748.00
2024-02-26T00:29:10.843Z,93753.00
2024-02-26T00:30:10.961Z,93763.00
2024-02-26T00:31:10.948Z,93766.00
2024-02-26T00:32:11.067Z,93769.00
2024-02-26T00:33:11.272Z,93756.00
2024-02-26T00:34:11.290Z,93742.00
2024-02-26T00:35:11.250Z,93738.00
2024-02-26T00:36:11.349Z,93735.00
2024-02-26T00:37:11.339Z,93729.00
2024-02-26T00:38:11.342Z,93735.00
2024-02-26T00:39:11.470Z,93752.00
2024-02-26T00:40:11.471Z,93759.00
2024-02-26T00:41:11.654Z,93754.00
2024-02-26T00:42:11.713Z,93751.00
2024-02-26T00:43:11.683Z,93746.00
2024-02-26T00:44:11.689Z,93752.00
2024-02-26T00:45:11.798Z,93754.00
2024-02-26T00:46:11.817Z,93752.00
2024-02-26T00:47:11.912Z,93741.00
2024-02-26T00:48:12.017Z,93734.00
2024-02-26T00:49:12.129Z,93729.00
2024-02-26T00:50:12.126Z,93736.00
2024-02-26T00:51:12.173Z,93737.00
2024-02-26T00:52:12.226Z,93737.00
2024-02-26T00:53:12.221Z,93739.00
2024-02-26T00:54:12.288Z,93733.00
2024-02-26T00:55:12.339Z,93728.00
2024-02-26T00:56:12.394Z,93738.00
2024-02-26T00:57:12.500Z,93737.00
2024-02-26T00:58:12.441Z,93743.00
2024-02-26T00:59:12.492Z,93732.00
2024-02-26T01:00:12.653Z,93725.00
2024-02-26T01:01:12.599Z,93733.00
2024-02-26T01:02:12.591Z,93744.00
2024-02-26T01:03:12.677Z,93736.00
2024-02-26T01:04:12.677Z,93724.00
2024-02-26T01:05:12.716Z,93720.00
2024-02-26T01:06:12.858Z,93725.00
2024-02-26T01:07:12.937Z,93720.00
2024-02-26T01:08:12.915Z,93712.00
2024-02-26T01:09:12.939Z,93714.00
2024-02-26T01:10:13.498Z,93725.00
2024-02-26T01:11:12.903Z,93725.00
2024-02-26T01:12:13.001Z,93720.00
2024-02-26T01:13:13.608Z,93717.00
2024-02-26T01:14:12.996Z,93716.00
2024-02-26T01:15:13.118Z,93712.00
2024-02-26T01:16:13.081Z,93715.00
2024-02-26T01:17:13.148Z,93729.00
2024-02-26T01:18:13.370Z,93742.00
2024-02-26T01:19:13.390Z,93737.00
2024-02-26T01:20:13.266Z,93723.00
2024-02-26T01:21:13.316Z,93713.00
2024-02-26T01:22:13.300Z,93707.00
2024-02-26T01:23:13.392Z,93720.00
2024-02-26T01:24:13.492Z,93728.00
2024-02-26T01:25:13.448Z,93730.00
2024-02-26T01:26:13.490Z,93724.00
2024-02-26T01:27:13.498Z,93726.00
2024-02-26T01:28:13.467Z,93745.00
2024-02-26T01:29:13.596Z,93744.00
2024-02-26T01:30:13.703Z,93738.00
2024-02-26T01:31:13.645Z,93734.00
2024-02-26T01:32:13.713Z,93741.00
2024-02-26T01:33:13.884Z,93699.00
2024-02-26T01:34:14.033Z,93693.00
2024-02-26T01:35:13.886Z,93712.00
2024-02-26T01:36:13.944Z,93739.00
2024-02-26T01:37:14.082Z,93723.00
2024-02-26T01:38:14.113Z,93707.00
2024-02-26T01:39:14.246Z,93712.00
2024-02-26T01:40:14.283Z,93716.00
2024-02-26T01:41:14.288Z,93717.00
2024-02-26T01:42:14.427Z,93717.00
2024-02-26T01:43:14.480Z,93718.00
2024-02-26T01:44:14.542Z,93717.00
2024-02-26T01:45:14.593Z,93720.00
2024-02-26T01:46:14.544Z,93722.00
2024-02-26T01:47:14.620Z,93717.00
2024-02-26T01:48:16.033Z,93721.00
2024-02-26T01:49:14.911Z,93725.00
2024-02-26T01:50:14.792Z,93717.00
2024-02-26T01:51:14.888Z,93712.00
2024-02-26T01:52:14.889Z,93717.00
2024-02-26T01:53:14.926Z,93703.00
2024-02-26T01:54:15.078Z,93689.00
2024-02-26T01:55:15.066Z,93695.00
2024-02-26T01:56:15.100Z,93708.00
2024-02-26T01:57:15.254Z,93706.00
2024-02-26T01:58:15.272Z,93700.00
2024-02-26T01:59:15.333Z,93696.00
2024-02-26T02:00:15.483Z,93699.00
2024-02-26T02:01:15.493Z,93691.00
2024-02-26T02:02:15.499Z,93709.00
2024-02-26T02:03:15.602Z,93713.00
2024-02-26T02:04:15.646Z,93713.00
2024-02-26T02:05:15.686Z,93704.00
2024-02-26T02:06:15.761Z,93695.00
2024-02-26T02:07:15.814Z,93694.00
2024-02-26T02:08:15.861Z,93701.00
2024-02-26T02:09:15.953Z,93714.00
2024-02-26T02:10:15.951Z,93706.00
2024-02-26T02:11:16.104Z,93683.00
2024-02-26T02:12:16.076Z,93688.00
2024-02-26T02:13:16.094Z,93689.00
2024-02-26T02:14:16.092Z,93692.00
2024-02-26T02:15:16.159Z,93703.00
2024-02-26T02:16:16.164Z,93701.00
2024-02-26T02:17:16.194Z,93689.00
2024-02-26T02:18:16.329Z,93675.00
2024-02-26T02:19:16.348Z,93690.00
2024-02-26T02:20:16.353Z,93696.00
2024-02-26T02:21:16.435Z,93696.00
2024-02-26T02:22:16.399Z,93691.00
2024-02-26T02:23:16.412Z,93675.00
2024-02-26T02:24:16.490Z,93678.00
2024-02-26T02:25:16.505Z,93692.00
2024-02-26T02:26:16.566Z,93695.00
2024-02-26T02:27:16.646Z,93702.00
2024-02-26T02:28:16.690Z,93712.00
2024-02-26T02:29:16.767Z,93712.00
2024-02-26T02:30:16.886Z,93697.00
2024-02-26T02:31:16.927Z,93699.00
2024-02-26T02:32:16.974Z,93692.00
2024-02-26T02:33:17.106Z,93674.00
2024-02-26T02:34:17.150Z,93672.00
2024-02-26T02:35:17.093Z,93669.00
2024-02-26T02:36:17.170Z,93681.00
2024-02-26T02:37:17.238Z,93692.00
2024-02-26T02:38:17.325Z,93693.00
2024-02-26T02:39:17.431Z,93688.00
2024-02-26T02:40:17.504Z,93683.00
2024-02-26T02:41:17.534Z,93667.00
2024-02-26T02:42:17.625Z,93667.00
2024-02-26T02:43:17.646Z,93690.00
2024-02-26T02:44:17.590Z,93687.00
2024-02-26T02:45:17.724Z,93677.00
2024-02-26T02:46:17.697Z,93680.00
2024-02-26T02:47:17.749Z,93700.00
2024-02-26T02:48:17.893Z,93707.00
2024-02-26T02:49:17.971Z,93685.00
2024-02-26T02:50:17.888Z,93661.00
2024-02-26T02:51:17.980Z,93677.00
2024-02-26T02:52:17.996Z,93692.00
2024-02-26T02:53:18.037Z,93689.00
2024-02-26T02:54:18.241Z,93689.00
2024-02-26T02:55:18.179Z,93693.00
2024-02-26T02:56:18.236Z,93679.00
2024-02-26T02:57:18.320Z,93663.00
2024-02-26T02:58:18.274Z,93672.00
2024-02-26T02:59:18.352Z,93681.00
2024-02-26T03:00:18.470Z,93677.00
2024-02-26T03:01:18.527Z,93676.00
2024-02-26T03:02:18.603Z,93686.00
2024-02-26T03:03:18.755Z,93682.00
2024-02-26T03:04:18.733Z,93675.00
2024-02-26T03:05:18.793Z,93662.00
2024-02-26T03:06:18.952Z,93660.00
2024-02-26T03:07:19.016Z,93672.00
2024-02-26T03:08:19.075Z,93697.00
2024-02-26T03:09:19.109Z,93713.00
2024-02-26T03:10:19.174Z,93700.00
2024-02-26T03:11:19.289Z,93682.00
2024-02-26T03:12:19.358Z,93674.00
2024-02-26T03:13:19.362Z,93676.00
2024-02-26T03:14:19.401Z,93674.00
2024-02-26T03:15:19.490Z,93669.00
2024-02-26T03:16:19.499Z,93670.00
2024-02-26T03:17:19.542Z,93676.00
2024-02-26T03:18:19.735Z,93681.00
2024-02-26T03:19:19.751Z,93676.00
2024-02-26T03:20:19.710Z,93669.00
2024-02-26T03:21:19.871Z,93661.00
2024-02-26T03:22:19.837Z,93658.00
2024-02-26T03:23:19.840Z,93668.00
2024-02-26T03:24:20.154Z,93679.00
2024-02-26T03:25:20.002Z,93679.00
2024-02-26T03:26:20.027Z,93667.00
2024-02-26T03:27:20.140Z,93664.00
2024-02-26T03:28:20.091Z,93671.00
2024-02-26T03:29:20.135Z,93664.00
2024-02-26T03:30:20.231Z,93656.00
2024-02-26T03:31:20.246Z,93651.00
2024-02-26T03:32:20.369Z,93662.00
2024-02-26T03:33:20.590Z,93663.00
2024-02-26T03:34:20.659Z,93658.00
2024-02-26T03:35:20.521Z,93656.00
2024-02-26T03:36:20.640Z,93665.00
2024-02-26T03:37:20.667Z,93660.00
2024-02-26T03:38:20.716Z,93654.00
2024-02-26T03:39:20.766Z,93656.00
2024-02-26T03:40:20.797Z,93666.00
2024-02-26T03:41:20.798Z,93661.00
2024-02-26T03:42:20.958Z,93658.00
2024-02-26T03:43:20.956Z,93674.00
2024-02-26T03:44:20.996Z,93678.00
2024-02-26T03:45:21.500Z,93670.00
2024-02-26T03:46:21.072Z,93658.00
2024-02-26T03:47:21.199Z,93667.00
2024-02-26T03:48:21.412Z,93670.00
2024-02-26T03:49:21.374Z,93662.00
2024-02-26T03:50:21.303Z,93656.00
2024-02-26T03:51:21.388Z,93658.00
2024-02-26T03:52:21.410Z,93664.00
2024-02-26T03:53:21.425Z,93655.00
2024-02-26T03:54:21.511Z,93655.00
2024-02-26T03:55:21.499Z,93650.00
2024-02-26T03:56:21.505Z,93648.00
2024-02-26T03:57:21.510Z,93639.00
2024-02-26T03:58:21.546Z,93644.00
2024-02-26T03:59:21.627Z,93657.00
2024-02-26T04:00:23.278Z,93650.00
2024-02-26T04:01:21.785Z,93653.00
2024-02-26T04:02:21.722Z,93649.00
2024-02-26T04:03:21.903Z,93644.00
2024-02-26T04:04:21.899Z,93634.00
2024-02-26T04:05:21.942Z,93633.00
2024-02-26T04:06:22.101Z,93629.00
2024-02-26T04:07:22.096Z,93638.00
2024-02-26T04:08:22.086Z,93648.00
2024-02-26T04:09:22.177Z,93652.00
2024-02-26T04:10:22.128Z,93652.00
2024-02-26T04:11:22.205Z,93652.00
2024-02-26T04:12:23.530Z,93647.00
2024-02-26T04:13:22.351Z,93633.00
2024-02-26T04:14:22.400Z,93627.00
2024-02-26T04:15:22.522Z,93627.00
2024-02-26T04:16:22.477Z,93645.00
2024-02-26T04:17:22.533Z,93646.00
2024-02-26T04:18:22.714Z,93649.00
2024-02-26T04:19:22.939Z,93644.00
2024-02-26T04:20:22.758Z,93642.00
2024-02-26T04:21:22.877Z,93646.00
2024-02-26T04:22:22.851Z,93637.00
2024-02-26T04:23:22.891Z,93628.00
2024-02-26T04:24:22.970Z,93645.00
2024-02-26T04:25:23.046Z,93656.00
2024-02-26T04:26:23.095Z,93658.00
2024-02-26T04:27:23.231Z,93651.00
2024-02-26T04:28:23.231Z,93643.00
2024-02-26T04:29:23.298Z,93637.00
2024-02-26T04:30:23.508Z,93635.00
2024-02-26T04:31:23.404Z,93639.00
2024-02-26T04:32:23.557Z,93643.00
2024-02-26T04:33:23.512Z,93647.00
2024-02-26T04:34:23.627Z,93631.00
2024-02-26T04:35:23.498Z,93628.00
2024-02-26T04:36:23.554Z,93622.00
2024-02-26T04:37:23.566Z,93632.00
2024-02-26T04:38:23.635Z,93623.00
2024-02-26T04:39:23.833Z,93619.00
2024-02-26T04:40:23.804Z,93615.00
2024-02-26T04:41:23.834Z,93616.00
2024-02-26T04:42:24.011Z,93629.00
2024-02-26T04:43:23.943Z,93639.00
2024-02-26T04:44:24.043Z,93630.00
2024-02-26T04:45:24.194Z,93623.00
2024-02-26T04:46:24.136Z,93623.00
2024-02-26T04:47:24.171Z,93644.00
2024-02-26T04:48:24.332Z,93636.00
2024-02-26T04:49:24.294Z,93628.00
2024-02-26T04:50:24.321Z,93631.00
2024-02-26T04:51:24.459Z,93638.00
2024-02-26T04:52:24.521Z,93641.00
2024-02-26T04:53:24.623Z,93625.00
2024-02-26T04:54:24.771Z,93613.00
2024-02-26T04:55:24.671Z,93634.00
2024-02-26T04:56:24.653Z,93643.00
2024-02-26T04:57:24.758Z,93632.00
2024-02-26T04:58:24.724Z,93630.00
2024-02-26T04:59:24.733Z,93630.00
2024-02-26T05:00:24.832Z,93638.00
2024-02-26T05:01:24.861Z,93645.00
2024-02-26T05:02:24.829Z,93648.00
2024-02-26T05:03:24.859Z,93648.00
2024-02-26T05:04:24.915Z,93647.00
2024-02-26T05:05:24.960Z,93645.00
2024-02-26T05:06:24.941Z,93641.00
2024-02-26T05:07:24.923Z,93644.00
2024-02-26T05:08:24.898Z,93646.00
2024-02-26T05:09:24.959Z,93646.00
2024-02-26T05:10:24.942Z,93641.00
2024-02-26T05:11:25.080Z,93642.00
2024-02-26T05:12:25.053Z,93650.00
2024-02-26T05:13:25.085Z,93662.00
2024-02-26T05:14:25.092Z,93667.00
2024-02-26T05:15:25.285Z,93654.00
2024-02-26T05:16:25.148Z,93656.00
2024-02-26T05:17:26.568Z,93660.00
2024-02-26T05:18:25.340Z,93664.00
2024-02-26T05:19:25.346Z,93667.00
2024-02-26T05:20:25.324Z,93661.00
2024-02-26T05:21:25.406Z,93644.00
2024-02-26T05:22:25.448Z,93655.00
2024-02-26T05:23:25.509Z,93658.00
2024-02-26T05:24:25.701Z,93662.00
2024-02-26T05:25:25.622Z,93657.00
2024-02-26T05:26:25.625Z,93655.00
2024-02-26T05:27:25.718Z,93655.00
2024-02-26T05:28:25.689Z,93659.00
2024-02-26T05:29:25.666Z,93658.00
2024-02-26T05:30:25.833Z,93656.00
2024-02-26T05:31:33.427Z,93676.00
2024-02-26T05:32:33.442Z,93670.00
2024-02-26T05:33:33.485Z,93650.00
2024-02-26T05:34:33.493Z,93663.00
2024-02-26T05:35:33.489Z,93663.00
2024-02-26T05:36:33.475Z,93659.00
2024-02-26T05:37:33.496Z,93665.00
2024-02-26T05:38:33.513Z,93669.00
2024-02-26T05:39:33.582Z,93662.00
2024-02-26T05:40:33.547Z,93651.00
2024-02-26T05:41:33.571Z,93651.00
2024-02-26T05:42:33.592Z,93668.00
2024-02-26T05:43:33.594Z,93663.00
2024-02-26T05:44:33.626Z,93644.00
2024-02-26T05:45:33.714Z,93654.00
2024-02-26T05:46:33.700Z,93669.00
2024-02-26T05:47:33.686Z,93677.00
2024-02-26T05:48:33.947Z,93671.00
2024-02-26T05:49:33.856Z,93665.00
2024-02-26T05:50:33.786Z,93663.00
2024-02-26T05:51:33.836Z,93666.00
2024-02-26T05:52:33.843Z,93668.00
2024-02-26T05:53:33.884Z,93657.00
2024-02-26T05:54:33.902Z,93673.00
2024-02-26T05:55:33.914Z,93695.00
2024-02-26T05:56:33.957Z,93672.00
2024-02-26T05:57:33.984Z,93668.00
2024-02-26T05:58:33.972Z,93687.00
2024-02-26T05:59:34.070Z,93681.00
2024-02-26T06:02:03.038Z,93689.00
2024-02-26T06:02:40.402Z,93682.00
2024-02-26T06:03:40.480Z,93681.00
2024-02-26T06:04:40.421Z,93699.00
2024-02-26T06:05:40.511Z,93691.00
2024-02-26T06:06:43.745Z,93694.00
2024-02-26T06:07:40.451Z,93689.00
2024-02-26T06:08:40.487Z,93697.00
2024-02-26T06:09:40.519Z,93704.00
2024-02-26T06:10:40.523Z,93687.00
2024-02-26T06:11:40.529Z,93671.00
2024-02-26T06:12:40.547Z,93686.00
2024-02-26T06:13:40.598Z,93700.00
2024-02-26T06:14:40.602Z,93703.00
2024-02-26T06:15:40.675Z,93698.00
2024-02-26T06:16:40.744Z,93674.00
2024-02-26T06:17:40.744Z,93657.00
2024-02-26T06:18:40.937Z,93663.00
2024-02-26T06:19:40.815Z,93679.00
2024-02-26T06:20:40.809Z,93684.00
2024-02-26T06:21:40.819Z,93685.00
2024-02-26T06:22:40.855Z,93686.00
2024-02-26T06:23:40.838Z,93691.00
2024-02-26T06:24:40.885Z,93698.00
2024-02-26T06:25:40.889Z,93694.00
2024-02-26T06:26:40.901Z,93691.00
2024-02-26T06:27:40.895Z,93695.00
2024-02-26T06:28:40.916Z,93698.00
2024-02-26T06:29:40.971Z,93699.00
2024-02-26T06:30:41.001Z,93703.00
2024-02-26T06:31:41.040Z,93699.00
2024-02-26T06:32:41.101Z,93697.00
2024-02-26T06:33:41.128Z,93699.00
2024-02-26T06:34:41.077Z,93703.00
2024-02-26T06:35:41.014Z,93710.00
2024-02-26T06:36:41.069Z,93714.00
2024-02-26T06:37:41.027Z,93721.00
2024-02-26T06:38:41.056Z,93717.00
2024-02-26T06:39:41.110Z,93710.00
2024-02-26T06:40:41.120Z,93702.00
2024-02-26T06:41:41.878Z,93697.00
2024-02-26T06:42:41.165Z,93703.00
2024-02-26T06:43:41.147Z,93710.00
2024-02-26T06:44:41.145Z,93709.00
2024-02-26T06:47:13.671Z,93712.00
2024-02-26T06:47:47.727Z,93717.00
2024-02-26T06:48:47.601Z,93725.00
2024-02-26T06:49:47.561Z,93725.00
2024-02-26T06:50:47.545Z,93717.00
2024-02-26T06:51:47.683Z,93702.00
2024-02-26T06:52:47.594Z,93695.00
2024-02-26T06:53:47.725Z,93700.00
2024-02-26T06:54:48.405Z,93717.00
2024-02-26T06:55:47.925Z,93724.00
2024-02-26T06:56:48.234Z,93714.00
2024-02-26T06:57:48.042Z,93708.00
2024-02-26T06:58:48.208Z,93712.00
2024-02-26T06:59:48.471Z,93713.00
2024-02-26T07:00:49.267Z,93718.00
2024-02-26T07:01:48.657Z,93722.00
2024-02-26T07:02:48.364Z,93721.00
2024-02-26T07:03:48.395Z,93718.00
2024-02-26T07:04:48.488Z,93718.00
2024-02-26T07:05:48.738Z,93719.00
2024-02-26T07:06:48.928Z,93726.00
2024-02-26T07:07:48.504Z,93733.00
2024-02-26T07:08:48.631Z,93729.00
2024-02-26T07:09:48.649Z,93716.00
2024-02-26T07:10:48.698Z,93707.00
2024-02-26T07:11:48.778Z,93709.00
2024-02-26T07:12:49.355Z,93722.00
2024-02-26T07:13:48.802Z,93725.00
2024-02-26T07:14:48.992Z,93723.00
2024-02-26T07:15:48.981Z,93724.00
2024-02-26T07:16:48.942Z,93727.00
2024-02-26T07:17:49.255Z,93725.00
2024-02-26T07:18:49.207Z,93730.00
2024-02-26T07:19:49.279Z,93744.00
2024-02-26T07:20:49.504Z,93741.00
2024-02-26T07:21:49.315Z,93750.00
2024-02-26T07:22:49.295Z,93751.00
2024-02-26T07:23:49.464Z,93747.00
2024-02-26T07:24:50.237Z,93744.00
2024-02-26T07:25:50.008Z,93739.00
2024-02-26T07:26:49.596Z,93729.00
2024-02-26T07:27:50.133Z,93721.00
2024-02-26T07:28:49.734Z,93716.00
2024-02-26T07:29:49.884Z,93724.00
2024-02-26T07:30:49.858Z,93736.00
2024-02-26T07:31:49.909Z,93732.00
2024-02-26T07:32:51.622Z,93722.00
2024-02-26T07:33:50.131Z,93730.00
2024-02-26T07:34:50.132Z,93723.00
2024-02-26T07:35:50.186Z,93720.00
2024-02-26T07:36:50.217Z,93722.00
2024-02-26T07:37:50.655Z,93725.00
2024-02-26T07:38:50.607Z,93719.00
2024-02-26T07:39:50.274Z,93726.00
2024-02-26T07:40:56.208Z,93730.00
2024-02-26T07:41:51.846Z,93727.00
2024-02-26T07:42:50.504Z,93730.00
2024-02-26T07:43:50.356Z,93736.00
2024-02-26T07:44:50.410Z,93735.00
2024-02-26T07:45:50.364Z,93733.00
2024-02-26T07:46:50.752Z,93724.00
2024-02-26T07:47:51.718Z,93724.00
2024-02-26T07:48:50.728Z,93725.00
2024-02-26T07:49:50.487Z,93725.00
2024-02-26T07:50:50.466Z,93728.00
2024-02-26T07:51:50.418Z,93727.00
2024-02-26T07:52:50.694Z,93733.00
2024-02-26T07:53:50.721Z,93738.00
2024-02-26T07:54:50.666Z,93736.00
2024-02-26T07:55:50.968Z,93736.00
2024-02-26T07:56:50.903Z,93728.00
2024-02-26T07:57:51.195Z,93730.00
2024-02-26T07:58:50.973Z,93735.00
2024-02-26T07:59:51.597Z,93738.00
2024-02-26T08:00:51.135Z,93744.00
2024-02-26T08:01:54.959Z,93745.00
2024-02-26T08:02:52.652Z,93739.00
2024-02-26T08:03:51.323Z,93737.00
2024-02-26T08:04:51.302Z,93741.00
2024-02-26T08:05:51.386Z,93746.00
2024-02-26T08:06:51.444Z,93758.00
2024-02-26T08:07:51.678Z,93753.00
2024-02-26T08:08:51.201Z,93736.00
2024-02-26T08:09:51.216Z,93739.00
2024-02-26T08:10:51.381Z,93749.00
2024-02-26T08:11:51.228Z,93754.00
2024-02-26T08:12:51.697Z,93736.00
2024-02-26T08:13:51.324Z,93727.00
2024-02-26T08:14:51.427Z,93729.00
2024-02-26T08:15:51.454Z,93751.00
2024-02-26T08:16:51.516Z,93750.00
2024-02-26T08:17:51.778Z,93736.00
2024-02-26T08:18:51.600Z,93727.00
2024-02-26T08:19:51.651Z,93730.00
2024-02-26T08:20:51.631Z,93742.00
2024-02-26T08:21:51.665Z,93752.00
2024-02-26T08:22:51.725Z,93746.00
2024-02-26T08:23:52.014Z,93734.00
2024-02-26T08:24:52.799Z,93725.00
2024-02-26T08:25:52.108Z,93706.00
2024-02-26T08:26:52.008Z,93724.00
2024-02-26T08:27:52.211Z,93743.00
2024-02-26T08:28:52.017Z,93750.00
2024-02-26T08:29:52.172Z,93729.00
2024-02-26T08:30:52.144Z,93714.00
2024-02-26T08:31:52.157Z,93711.00
2024-02-26T08:32:53.081Z,93737.00
2024-02-26T08:33:52.683Z,93743.00
2024-02-26T08:34:52.406Z,93734.00
2024-02-26T08:35:52.309Z,93722.00
2024-02-26T08:36:52.411Z,93732.00
2024-02-26T08:37:52.687Z,93739.00
2024-02-26T08:38:52.522Z,93742.00
2024-02-26T08:39:52.597Z,93739.00
2024-02-26T08:40:52.553Z,93741.00
2024-02-26T08:41:52.602Z,93729.00
2024-02-26T08:42:52.616Z,93703.00
2024-02-26T08:43:52.620Z,93717.00
2024-02-26T08:44:52.697Z,93735.00
2024-02-26T08:45:52.749Z,93716.00
2024-02-26T08:46:53.816Z,93708.00
2024-02-26T08:47:53.129Z,93700.00
2024-02-26T08:48:52.991Z,93704.00
2024-02-26T08:49:53.041Z,93722.00
2024-02-26T08:50:53.174Z,93717.00
2024-02-26T08:51:53.144Z,93716.00
2024-02-26T08:52:53.718Z,93704.00
2024-02-26T08:53:53.449Z,93728.00
2024-02-26T08:54:53.295Z,93717.00
2024-02-26T08:55:53.366Z,93720.00
2024-02-26T08:56:53.530Z,93720.00
2024-02-26T08:57:53.589Z,93722.00
2024-02-26T08:58:53.450Z,93714.00
2024-02-26T08:59:53.502Z,93705.00
2024-02-26T09:00:53.606Z,93701.00
2024-02-26T09:01:53.578Z,93689.00
2024-02-26T09:02:53.725Z,93699.00
2024-02-26T09:03:53.696Z,93689.00
2024-02-26T09:04:53.761Z,93683.00
2024-02-26T09:05:53.730Z,93698.00
2024-02-26T09:06:53.740Z,93708.00
2024-02-26T09:07:53.804Z,93690.00
2024-02-26T09:08:53.869Z,93688.00
2024-02-26T09:09:53.914Z,93683.00
2024-02-26T09:10:53.885Z,93687.00
2024-02-26T09:11:54.032Z,93690.00
2024-02-26T09:12:54.229Z,93694.00
2024-02-26T09:13:54.061Z,93700.00
2024-02-26T09:14:54.093Z,93700.00
2024-02-26T09:15:54.083Z,93696.00
2024-02-26T09:16:54.070Z,93682.00
2024-02-26T09:17:54.311Z,93687.00
2024-02-26T09:18:55.248Z,93689.00
2024-02-26T09:19:54.233Z,93682.00
2024-02-26T09:20:54.262Z,93689.00
2024-02-26T09:21:54.338Z,93690.00
2024-02-26T09:22:55.022Z,93700.00
2024-02-26T09:23:54.717Z,93706.00
2024-02-26T09:24:54.289Z,93682.00
2024-02-26T09:25:54.352Z,93684.00
2024-02-26T09:26:54.664Z,93704.00
2024-02-26T09:27:54.451Z,93698.00
2024-02-26T09:28:54.530Z,93722.00
2024-02-26T09:29:54.583Z,93685.00
2024-02-26T09:30:54.953Z,93678.00
2024-02-26T09:31:54.637Z,93677.00
2024-02-26T09:32:54.874Z,93684.00
2024-02-26T09:33:56.972Z,93691.00
2024-02-26T09:34:54.903Z,93690.00
2024-02-26T09:35:54.721Z,93683.00
2024-02-26T09:36:58.228Z,93697.00
2024-02-26T09:37:55.706Z,93697.00
2024-02-26T09:39:00.672Z,93686.00
2024-02-26T09:39:55.963Z,93709.00
2024-02-26T09:40:54.951Z,93696.00
2024-02-26T09:41:55.045Z,93699.00
2024-02-26T09:42:54.918Z,93699.00
2024-02-26T09:43:55.508Z,93697.00
2024-02-26T09:44:55.041Z,93703.00
2024-02-26T09:45:55.664Z,93673.00
2024-02-26T09:46:55.001Z,93681.00
2024-02-26T09:47:55.083Z,93697.00
2024-02-26T09:48:55.941Z,93705.00
2024-02-26T09:49:55.121Z,93704.00
2024-02-26T09:50:55.068Z,93702.00
2024-02-26T09:51:55.037Z,93697.00
2024-02-26T09:52:56.081Z,93684.00
2024-02-26T09:53:55.383Z,93688.00
2024-02-26T09:54:55.009Z,93700.00
2024-02-26T09:55:55.017Z,93706.00
2024-02-26T09:57:00.242Z,93694.00
2024-02-26T09:57:56.087Z,93695.00
2024-02-26T09:58:55.400Z,93684.00
2024-02-26T09:59:54.957Z,93694.00
2024-02-26T10:00:54.992Z,93691.00
2024-02-26T10:01:54.917Z,93687.00
2024-02-26T10:02:54.897Z,93677.00
2024-02-26T10:03:55.170Z,93696.00
2024-02-26T10:04:54.934Z,93698.00
2024-02-26T10:05:54.929Z,93693.00
2024-02-26T10:06:54.916Z,93706.00
2024-02-26T10:07:54.825Z,93696.00
2024-02-26T10:08:54.909Z,93687.00
2024-02-26T10:09:54.860Z,93688.00
2024-02-26T10:10:54.970Z,93680.00
2024-02-26T10:11:55.059Z,93661.00
2024-02-26T10:12:55.044Z,93677.00
2024-02-26T10:13:55.112Z,93700.00
2024-02-26T10:14:55.158Z,93702.00
2024-02-26T10:15:55.121Z,93679.00
2024-02-26T10:16:55.259Z,93687.00
2024-02-26T10:17:55.204Z,93691.00
2024-02-26T10:18:58.755Z,93693.00
2024-02-26T10:19:55.348Z,93708.00
2024-02-26T10:20:55.172Z,93672.00
2024-02-26T10:21:55.150Z,93675.00
2024-02-26T10:22:55.174Z,93678.00
2024-02-26T10:23:55.238Z,93669.00
2024-02-26T10:24:55.165Z,93663.00
2024-02-26T10:25:55.156Z,93684.00
2024-02-26T10:26:55.388Z,93695.00
2024-02-26T10:27:55.078Z,93695.00
2024-02-26T10:28:55.901Z,93659.00
2024-02-26T10:29:55.119Z,93669.00
2024-02-26T10:30:55.109Z,93705.00
2024-02-26T10:31:55.138Z,93681.00
2024-02-26T10:32:55.417Z,93657.00
2024-02-26T10:33:55.778Z,93651.00
2024-02-26T10:34:55.419Z,93673.00
2024-02-26T10:35:55.386Z,93699.00
2024-02-26T10:36:55.732Z,93672.00
2024-02-26T10:37:55.654Z,93659.00
2024-02-26T10:38:56.529Z,93676.00
2024-02-26T10:39:55.487Z,93675.00
2024-02-26T10:40:55.472Z,93679.00
2024-02-26T10:41:55.596Z,93688.00
2024-02-26T10:42:55.431Z,93681.00
2024-02-26T10:43:55.713Z,93676.00
2024-02-26T10:44:55.987Z,93674.00
2024-02-26T10:45:55.517Z,93681.00
2024-02-26T10:46:55.623Z,93676.00
2024-02-26T10:47:55.725Z,93676.00
2024-02-26T10:48:55.955Z,93691.00
2024-02-26T10:49:55.696Z,93694.00
2024-02-26T10:50:55.579Z,93686.00
2024-02-26T10:51:55.595Z,93683.00
2024-02-26T10:52:55.776Z,93677.00
2024-02-26T10:53:57.574Z,93676.00
2024-02-26T10:55:01.153Z,93669.00
2024-02-26T10:55:55.655Z,93673.00
2024-02-26T10:56:55.514Z,93675.00
2024-02-26T10:57:55.529Z,93670.00
2024-02-26T10:58:55.736Z,93672.00
2024-02-26T10:59:55.329Z,93684.00
2024-02-26T11:00:55.598Z,93672.00
2024-02-26T11:01:55.118Z,93678.00
2024-02-26T11:02:55.082Z,93668.00
2024-02-26T11:03:55.389Z,93648.00
2024-02-26T11:04:54.903Z,93643.00
2024-02-26T11:05:54.855Z,93652.00
2024-02-26T11:06:54.763Z,93640.00
2024-02-26T11:07:54.542Z,93630.00
2024-02-26T11:08:54.784Z,93603.00
2024-02-26T11:10:17.100Z,93624.00
2024-02-26T11:10:54.268Z,93657.00
2024-02-26T11:11:55.072Z,93673.00
2024-02-26T11:12:54.175Z,93644.00
2024-02-26T11:13:54.303Z,93642.00
2024-02-26T11:14:53.886Z,93621.00
2024-02-26T11:15:53.783Z,93615.00
2024-02-26T11:16:53.728Z,93628.00
2024-02-26T11:17:53.797Z,93607.00
2024-02-26T11:18:53.783Z,93625.00
2024-02-26T11:19:53.671Z,93610.00
2024-02-26T11:20:53.577Z,93609.00
2024-02-26T11:21:53.362Z,93623.00
2024-02-26T11:22:53.397Z,93609.00
2024-02-26T11:23:53.782Z,93598.00
2024-02-26T11:24:53.302Z,93620.00
2024-02-26T11:25:53.267Z,93596.00
2024-02-26T11:26:53.208Z,93625.00
2024-02-26T11:27:53.186Z,93601.00
2024-02-26T11:28:53.305Z,93605.00
2024-02-26T11:29:53.351Z,93639.00
2024-02-26T11:30:53.103Z,93631.00
2024-02-26T11:31:53.123Z,93598.00
2024-02-26T11:32:53.336Z,93582.00
2024-02-26T11:33:53.324Z,93605.00
2024-02-26T11:34:53.255Z,93588.00
2024-02-26T11:35:53.275Z,93608.00
2024-02-26T11:36:54.358Z,93603.00
2024-02-26T11:37:53.129Z,93585.00
2024-02-26T11:38:53.348Z,93577.00
2024-02-26T11:39:53.233Z,93593.00
2024-02-26T11:40:53.240Z,93590.00
2024-02-26T11:41:53.351Z,93582.00
2024-02-26T11:42:53.344Z,93582.00
2024-02-26T11:43:53.262Z,93583.00
2024-02-26T11:44:53.816Z,93572.00
2024-02-26T11:45:53.352Z,93556.00
2024-02-26T11:46:53.333Z,93562.00